sensor_id;sensor_type;location;lat;lon;timestamp;P1;durP1;ratioP1;P2;durP2;ratioP2
54705;SDS011;40603;48.774;8.916;2023-04-03T00:00:43;7.28;;;2.33;;
54705;SDS011;40603;48.774;8.916;2023-04-03T00:03:08;4.25;;;1.90;;
54705;SDS011;40603;48.774;8.916;2023-04-03T00:05:33;4.22;;;2.40;;
54705;SDS011;40603;48.774;8.916;2023-04-03T00:07:59;2.92;;;2.13;;
54705;SDS011;40603;48.774;8.916;2023-04-03T00:10:26;13.25;;;4.78;;
54705;SDS011;40603;48.774;8.916;2023-04-03T00:12:52;28.85;;;10.38;;
54705;SDS011;40603;48.774;8.916;2023-04-03T00:15:17;16.35;;;5.68;;
54705;SDS011;40603;48.774;8.916;2023-04-03T00:17:42;16.55;;;5.95;;
54705;SDS011;40603;48.774;8.916;2023-04-03T00:20:08;26.27;;;9.20;;
54705;SDS011;40603;48.774;8.916;2023-04-03T00:22:33;43.92;;;14.60;;
54705;SDS011;40603;48.774;8.916;2023-04-03T00:24:58;47.05;;;12.75;;
54705;SDS011;40603;48.774;8.916;2023-04-03T00:27:24;9.38;;;3.88;;
54705;SDS011;40603;48.774;8.916;2023-04-03T00:29:49;6.07;;;2.25;;
54705;SDS011;40603;48.774;8.916;2023-04-03T00:32:14;3.55;;;1.67;;
54705;SDS011;40603;48.774;8.916;2023-04-03T00:34:40;5.10;;;2.45;;
54705;SDS011;40603;48.774;8.916;2023-04-03T00:37:05;5.18;;;2.30;;
54705;SDS011;40603;48.774;8.916;2023-04-03T00:39:31;4.15;;;1.95;;
54705;SDS011;40603;48.774;8.916;2023-04-03T00:41:56;4.43;;;2.15;;
54705;SDS011;40603;48.774;8.916;2023-04-03T00:44:23;3.67;;;2.10;;
54705;SDS011;40603;48.774;8.916;2023-04-03T00:47:08;3.80;;;2.55;;
54705;SDS011;40603;48.774;8.916;2023-04-03T00:49:36;4.43;;;2.47;;
54705;SDS011;40603;48.774;8.916;2023-04-03T00:52:02;4.78;;;2.15;;
54705;SDS011;40603;48.774;8.916;2023-04-03T00:54:28;5.95;;;1.95;;
54705;SDS011;40603;48.774;8.916;2023-04-03T00:56:53;7.50;;;2.35;;
54705;SDS011;40603;48.774;8.916;2023-04-03T00:59:21;3.25;;;1.90;;
54705;SDS011;40603;48.774;8.916;2023-04-03T01:01:51;4.03;;;2.03;;
54705;SDS011;40603;48.774;8.916;2023-04-03T01:04:30;7.68;;;2.30;;
54705;SDS011;40603;48.774;8.916;2023-04-03T01:06:57;7.90;;;2.63;;
54705;SDS011;40603;48.774;8.916;2023-04-03T01:09:26;2.63;;;2.20;;
54705;SDS011;40603;48.774;8.916;2023-04-03T01:11:51;3.15;;;2.33;;
54705;SDS011;40603;48.774;8.916;2023-04-03T01:14:17;4.07;;;2.40;;
54705;SDS011;40603;48.774;8.916;2023-04-03T01:16:42;4.13;;;2.38;;
54705;SDS011;40603;48.774;8.916;2023-04-03T01:19:08;3.42;;;2.25;;
54705;SDS011;40603;48.774;8.916;2023-04-03T01:24:06;4.43;;;2.35;;
54705;SDS011;40603;48.774;8.916;2023-04-03T01:26:36;7.55;;;2.35;;
54705;SDS011;40603;48.774;8.916;2023-04-03T01:29:02;3.33;;;2.25;;
54705;SDS011;40603;48.774;8.916;2023-04-03T01:31:40;5.03;;;2.63;;
54705;SDS011;40603;48.774;8.916;2023-04-03T01:34:13;5.03;;;2.53;;
54705;SDS011;40603;48.774;8.916;2023-04-03T01:36:39;4.53;;;1.98;;
54705;SDS011;40603;48.774;8.916;2023-04-03T01:39:05;4.78;;;2.45;;
54705;SDS011;40603;48.774;8.916;2023-04-03T01:41:30;4.95;;;2.30;;
54705;SDS011;40603;48.774;8.916;2023-04-03T01:43:55;5.38;;;2.35;;
54705;SDS011;40603;48.774;8.916;2023-04-03T01:46:21;4.00;;;2.40;;
54705;SDS011;40603;48.774;8.916;2023-04-03T01:48:46;3.42;;;2.55;;
54705;SDS011;40603;48.774;8.916;2023-04-03T01:51:12;4.82;;;2.20;;
54705;SDS011;40603;48.774;8.916;2023-04-03T01:53:37;2.83;;;2.03;;
54705;SDS011;40603;48.774;8.916;2023-04-03T01:56:03;5.28;;;2.30;;
54705;SDS011;40603;48.774;8.916;2023-04-03T01:58:29;4.30;;;2.25;;
54705;SDS011;40603;48.774;8.916;2023-04-03T02:00:54;2.88;;;2.15;;
54705;SDS011;40603;48.774;8.916;2023-04-03T02:03:20;6.22;;;3.28;;
54705;SDS011;40603;48.774;8.916;2023-04-03T02:05:45;5.28;;;2.28;;
54705;SDS011;40603;48.774;8.916;2023-04-03T02:08:11;6.28;;;2.20;;
54705;SDS011;40603;48.774;8.916;2023-04-03T02:10:36;4.13;;;2.25;;
54705;SDS011;40603;48.774;8.916;2023-04-03T02:13:02;4.20;;;2.72;;
54705;SDS011;40603;48.774;8.916;2023-04-03T02:15:27;3.17;;;2.00;;
54705;SDS011;40603;48.774;8.916;2023-04-03T02:17:52;2.95;;;1.98;;
54705;SDS011;40603;48.774;8.916;2023-04-03T02:20:18;2.28;;;1.85;;
54705;SDS011;40603;48.774;8.916;2023-04-03T02:22:43;3.15;;;2.30;;
54705;SDS011;40603;48.774;8.916;2023-04-03T02:25:09;3.80;;;2.22;;
54705;SDS011;40603;48.774;8.916;2023-04-03T02:27:35;3.17;;;2.15;;
54705;SDS011;40603;48.774;8.916;2023-04-03T02:30:01;4.65;;;2.20;;
54705;SDS011;40603;48.774;8.916;2023-04-03T02:32:26;5.18;;;2.40;;
54705;SDS011;40603;48.774;8.916;2023-04-03T02:34:51;3.38;;;2.28;;
54705;SDS011;40603;48.774;8.916;2023-04-03T02:37:17;2.70;;;1.75;;
54705;SDS011;40603;48.774;8.916;2023-04-03T02:39:42;3.75;;;2.20;;
54705;SDS011;40603;48.774;8.916;2023-04-03T02:42:07;5.32;;;2.67;;
54705;SDS011;40603;48.774;8.916;2023-04-03T02:44:33;6.28;;;2.53;;
54705;SDS011;40603;48.774;8.916;2023-04-03T02:46:58;4.80;;;2.33;;
54705;SDS011;40603;48.774;8.916;2023-04-03T02:49:23;4.68;;;2.17;;
54705;SDS011;40603;48.774;8.916;2023-04-03T02:51:49;2.85;;;1.83;;
54705;SDS011;40603;48.774;8.916;2023-04-03T02:54:15;4.40;;;2.20;;
54705;SDS011;40603;48.774;8.916;2023-04-03T02:56:41;4.63;;;2.40;;
54705;SDS011;40603;48.774;8.916;2023-04-03T02:59:06;7.50;;;2.50;;
54705;SDS011;40603;48.774;8.916;2023-04-03T03:01:31;4.80;;;2.45;;
54705;SDS011;40603;48.774;8.916;2023-04-03T03:03:58;8.40;;;2.60;;
54705;SDS011;40603;48.774;8.916;2023-04-03T03:06:23;3.83;;;2.20;;
54705;SDS011;40603;48.774;8.916;2023-04-03T03:08:49;3.78;;;2.28;;
54705;SDS011;40603;48.774;8.916;2023-04-03T03:11:14;3.58;;;2.20;;
54705;SDS011;40603;48.774;8.916;2023-04-03T03:13:40;3.70;;;2.03;;
54705;SDS011;40603;48.774;8.916;2023-04-03T03:16:05;8.60;;;2.70;;
54705;SDS011;40603;48.774;8.916;2023-04-03T03:18:31;5.78;;;2.30;;
54705;SDS011;40603;48.774;8.916;2023-04-03T03:20:57;5.75;;;2.45;;
54705;SDS011;40603;48.774;8.916;2023-04-03T03:23:23;3.35;;;2.45;;
54705;SDS011;40603;48.774;8.916;2023-04-03T03:25:53;3.28;;;2.13;;
54705;SDS011;40603;48.774;8.916;2023-04-03T03:28:20;5.38;;;2.65;;
54705;SDS011;40603;48.774;8.916;2023-04-03T03:30:45;7.88;;;2.25;;
54705;SDS011;40603;48.774;8.916;2023-04-03T03:33:10;5.15;;;2.58;;
54705;SDS011;40603;48.774;8.916;2023-04-03T03:35:36;3.55;;;2.35;;
54705;SDS011;40603;48.774;8.916;2023-04-03T03:38:01;3.15;;;2.22;;
54705;SDS011;40603;48.774;8.916;2023-04-03T03:40:26;3.78;;;2.85;;
54705;SDS011;40603;48.774;8.916;2023-04-03T03:42:52;3.67;;;2.25;;
54705;SDS011;40603;48.774;8.916;2023-04-03T03:45:17;5.22;;;2.47;;
54705;SDS011;40603;48.774;8.916;2023-04-03T03:47:42;3.25;;;2.50;;
54705;SDS011;40603;48.774;8.916;2023-04-03T03:50:08;4.78;;;2.40;;
54705;SDS011;40603;48.774;8.916;2023-04-03T03:52:33;2.97;;;2.35;;
54705;SDS011;40603;48.774;8.916;2023-04-03T03:54:59;3.75;;;2.58;;
54705;SDS011;40603;48.774;8.916;2023-04-03T03:57:24;5.03;;;2.80;;
54705;SDS011;40603;48.774;8.916;2023-04-03T03:59:51;4.10;;;2.50;;
54705;SDS011;40603;48.774;8.916;2023-04-03T04:02:17;2.80;;;2.25;;
54705;SDS011;40603;48.774;8.916;2023-04-03T04:04:43;4.32;;;2.40;;
54705;SDS011;40603;48.774;8.916;2023-04-03T04:07:08;3.97;;;2.33;;
54705;SDS011;40603;48.774;8.916;2023-04-03T04:09:33;3.03;;;2.13;;
54705;SDS011;40603;48.774;8.916;2023-04-03T04:11:59;3.60;;;2.47;;
54705;SDS011;40603;48.774;8.916;2023-04-03T04:14:24;3.45;;;2.35;;
54705;SDS011;40603;48.774;8.916;2023-04-03T04:16:50;2.83;;;2.08;;
54705;SDS011;40603;48.774;8.916;2023-04-03T04:19:15;3.72;;;2.22;;
54705;SDS011;40603;48.774;8.916;2023-04-03T04:21:40;3.78;;;2.08;;
54705;SDS011;40603;48.774;8.916;2023-04-03T04:24:06;5.50;;;2.42;;
54705;SDS011;40603;48.774;8.916;2023-04-03T04:26:32;2.65;;;2.03;;
54705;SDS011;40603;48.774;8.916;2023-04-03T04:28:57;4.38;;;2.40;;
54705;SDS011;40603;48.774;8.916;2023-04-03T04:31:22;5.57;;;1.95;;
54705;SDS011;40603;48.774;8.916;2023-04-03T04:33:48;3.10;;;2.22;;
54705;SDS011;40603;48.774;8.916;2023-04-03T04:36:13;3.63;;;2.40;;
54705;SDS011;40603;48.774;8.916;2023-04-03T04:38:39;4.10;;;2.08;;
54705;SDS011;40603;48.774;8.916;2023-04-03T04:41:05;2.70;;;2.10;;
54705;SDS011;40603;48.774;8.916;2023-04-03T04:43:30;4.18;;;2.10;;
54705;SDS011;40603;48.774;8.916;2023-04-03T04:48:28;3.00;;;2.08;;
54705;SDS011;40603;48.774;8.916;2023-04-03T04:50:53;7.20;;;2.42;;
54705;SDS011;40603;48.774;8.916;2023-04-03T04:53:18;3.50;;;2.50;;
54705;SDS011;40603;48.774;8.916;2023-04-03T04:55:44;5.80;;;2.33;;
54705;SDS011;40603;48.774;8.916;2023-04-03T04:58:09;5.28;;;2.50;;
54705;SDS011;40603;48.774;8.916;2023-04-03T05:00:34;3.25;;;2.40;;
54705;SDS011;40603;48.774;8.916;2023-04-03T05:03:00;6.15;;;2.28;;
54705;SDS011;40603;48.774;8.916;2023-04-03T05:05:25;4.95;;;1.90;;
54705;SDS011;40603;48.774;8.916;2023-04-03T05:07:50;3.30;;;2.03;;
54705;SDS011;40603;48.774;8.916;2023-04-03T05:10:16;2.83;;;2.10;;
54705;SDS011;40603;48.774;8.916;2023-04-03T05:12:41;4.53;;;1.95;;
54705;SDS011;40603;48.774;8.916;2023-04-03T05:15:06;3.95;;;2.10;;
54705;SDS011;40603;48.774;8.916;2023-04-03T05:17:32;5.10;;;2.40;;
54705;SDS011;40603;48.774;8.916;2023-04-03T05:19:57;6.90;;;2.00;;
54705;SDS011;40603;48.774;8.916;2023-04-03T05:22:23;3.10;;;1.98;;
54705;SDS011;40603;48.774;8.916;2023-04-03T05:24:48;2.63;;;2.00;;
54705;SDS011;40603;48.774;8.916;2023-04-03T05:27:13;2.92;;;1.70;;
54705;SDS011;40603;48.774;8.916;2023-04-03T05:29:39;4.25;;;2.05;;
54705;SDS011;40603;48.774;8.916;2023-04-03T05:32:08;4.32;;;1.80;;
54705;SDS011;40603;48.774;8.916;2023-04-03T05:34:33;3.22;;;2.03;;
54705;SDS011;40603;48.774;8.916;2023-04-03T05:36:59;1.95;;;1.77;;
54705;SDS011;40603;48.774;8.916;2023-04-03T05:39:24;3.97;;;2.33;;
54705;SDS011;40603;48.774;8.916;2023-04-03T05:41:50;5.70;;;1.95;;
54705;SDS011;40603;48.774;8.916;2023-04-03T05:44:15;4.32;;;1.70;;
54705;SDS011;40603;48.774;8.916;2023-04-03T05:46:41;4.20;;;2.05;;
54705;SDS011;40603;48.774;8.916;2023-04-03T05:49:06;4.47;;;2.22;;
54705;SDS011;40603;48.774;8.916;2023-04-03T05:51:33;2.85;;;1.60;;
54705;SDS011;40603;48.774;8.916;2023-04-03T05:54:02;3.45;;;1.83;;
54705;SDS011;40603;48.774;8.916;2023-04-03T05:56:31;2.55;;;1.70;;
54705;SDS011;40603;48.774;8.916;2023-04-03T05:58:57;2.63;;;2.03;;
54705;SDS011;40603;48.774;8.916;2023-04-03T06:01:22;5.43;;;1.83;;
54705;SDS011;40603;48.774;8.916;2023-04-03T06:03:48;2.78;;;1.70;;
54705;SDS011;40603;48.774;8.916;2023-04-03T06:06:13;3.45;;;2.20;;
54705;SDS011;40603;48.774;8.916;2023-04-03T06:08:39;6.75;;;2.17;;
54705;SDS011;40603;48.774;8.916;2023-04-03T06:11:05;4.55;;;2.00;;
54705;SDS011;40603;48.774;8.916;2023-04-03T06:13:30;3.42;;;2.35;;
54705;SDS011;40603;48.774;8.916;2023-04-03T06:15:56;4.95;;;2.05;;
54705;SDS011;40603;48.774;8.916;2023-04-03T06:18:22;4.45;;;2.20;;
54705;SDS011;40603;48.774;8.916;2023-04-03T06:20:47;4.05;;;2.10;;
54705;SDS011;40603;48.774;8.916;2023-04-03T06:23:13;5.07;;;2.22;;
54705;SDS011;40603;48.774;8.916;2023-04-03T06:25:38;2.95;;;1.63;;
54705;SDS011;40603;48.774;8.916;2023-04-03T06:28:03;4.57;;;2.13;;
54705;SDS011;40603;48.774;8.916;2023-04-03T06:30:29;3.42;;;2.28;;
54705;SDS011;40603;48.774;8.916;2023-04-03T06:32:54;4.00;;;2.15;;
54705;SDS011;40603;48.774;8.916;2023-04-03T06:35:20;2.60;;;1.80;;
54705;SDS011;40603;48.774;8.916;2023-04-03T06:37:46;2.75;;;1.65;;
54705;SDS011;40603;48.774;8.916;2023-04-03T06:40:14;3.35;;;1.73;;
54705;SDS011;40603;48.774;8.916;2023-04-03T06:42:45;5.78;;;2.30;;
54705;SDS011;40603;48.774;8.916;2023-04-03T06:45:11;3.95;;;1.73;;
54705;SDS011;40603;48.774;8.916;2023-04-03T06:47:36;6.53;;;2.30;;
54705;SDS011;40603;48.774;8.916;2023-04-03T06:50:02;3.05;;;1.92;;
54705;SDS011;40603;48.774;8.916;2023-04-03T06:52:27;2.20;;;1.77;;
54705;SDS011;40603;48.774;8.916;2023-04-03T06:54:52;3.72;;;1.75;;
54705;SDS011;40603;48.774;8.916;2023-04-03T06:57:22;5.15;;;2.10;;
54705;SDS011;40603;48.774;8.916;2023-04-03T06:59:47;6.43;;;2.17;;
54705;SDS011;40603;48.774;8.916;2023-04-03T07:02:12;4.03;;;1.90;;
54705;SDS011;40603;48.774;8.916;2023-04-03T07:04:38;2.92;;;1.92;;
54705;SDS011;40603;48.774;8.916;2023-04-03T07:07:03;4.43;;;2.00;;
54705;SDS011;40603;48.774;8.916;2023-04-03T07:09:28;6.32;;;1.98;;
54705;SDS011;40603;48.774;8.916;2023-04-03T07:11:54;7.45;;;2.22;;
54705;SDS011;40603;48.774;8.916;2023-04-03T07:14:19;10.95;;;2.05;;
54705;SDS011;40603;48.774;8.916;2023-04-03T07:16:46;3.38;;;1.90;;
54705;SDS011;40603;48.774;8.916;2023-04-03T07:19:11;8.27;;;1.77;;
54705;SDS011;40603;48.774;8.916;2023-04-03T07:21:36;9.68;;;3.83;;
54705;SDS011;40603;48.774;8.916;2023-04-03T07:24:02;3.83;;;2.15;;
54705;SDS011;40603;48.774;8.916;2023-04-03T07:26:27;3.20;;;1.90;;
54705;SDS011;40603;48.774;8.916;2023-04-03T07:28:53;5.03;;;2.15;;
54705;SDS011;40603;48.774;8.916;2023-04-03T07:31:18;8.23;;;2.00;;
54705;SDS011;40603;48.774;8.916;2023-04-03T07:33:44;4.43;;;2.28;;
54705;SDS011;40603;48.774;8.916;2023-04-03T07:36:10;5.95;;;1.90;;
54705;SDS011;40603;48.774;8.916;2023-04-03T07:38:36;3.90;;;2.33;;
54705;SDS011;40603;48.774;8.916;2023-04-03T07:41:02;3.80;;;2.05;;
54705;SDS011;40603;48.774;8.916;2023-04-03T07:43:28;5.20;;;2.03;;
54705;SDS011;40603;48.774;8.916;2023-04-03T07:45:53;4.47;;;1.60;;
54705;SDS011;40603;48.774;8.916;2023-04-03T07:48:23;4.53;;;1.75;;
54705;SDS011;40603;48.774;8.916;2023-04-03T07:50:49;3.28;;;2.08;;
54705;SDS011;40603;48.774;8.916;2023-04-03T07:53:15;5.20;;;2.42;;
54705;SDS011;40603;48.774;8.916;2023-04-03T07:55:41;5.97;;;2.00;;
54705;SDS011;40603;48.774;8.916;2023-04-03T07:58:13;5.30;;;2.40;;
54705;SDS011;40603;48.774;8.916;2023-04-03T08:00:40;6.82;;;1.83;;
54705;SDS011;40603;48.774;8.916;2023-04-03T08:03:06;7.22;;;1.92;;
54705;SDS011;40603;48.774;8.916;2023-04-03T08:05:34;5.13;;;2.08;;
54705;SDS011;40603;48.774;8.916;2023-04-03T08:08:01;3.80;;;2.10;;
54705;SDS011;40603;48.774;8.916;2023-04-03T08:10:27;3.88;;;2.00;;
54705;SDS011;40603;48.774;8.916;2023-04-03T08:12:55;2.92;;;1.90;;
54705;SDS011;40603;48.774;8.916;2023-04-03T08:15:20;3.95;;;2.13;;
54705;SDS011;40603;48.774;8.916;2023-04-03T08:17:45;4.40;;;2.03;;
54705;SDS011;40603;48.774;8.916;2023-04-03T08:20:11;3.45;;;2.22;;
54705;SDS011;40603;48.774;8.916;2023-04-03T08:22:36;5.85;;;2.30;;
54705;SDS011;40603;48.774;8.916;2023-04-03T08:25:02;4.40;;;2.13;;
54705;SDS011;40603;48.774;8.916;2023-04-03T08:27:27;8.80;;;2.33;;
54705;SDS011;40603;48.774;8.916;2023-04-03T08:29:53;3.55;;;1.95;;
54705;SDS011;40603;48.774;8.916;2023-04-03T08:32:19;3.95;;;2.10;;
54705;SDS011;40603;48.774;8.916;2023-04-03T08:34:44;4.05;;;1.98;;
54705;SDS011;40603;48.774;8.916;2023-04-03T08:37:11;4.78;;;2.20;;
54705;SDS011;40603;48.774;8.916;2023-04-03T08:39:36;4.57;;;2.22;;
54705;SDS011;40603;48.774;8.916;2023-04-03T08:42:03;4.90;;;2.58;;
54705;SDS011;40603;48.774;8.916;2023-04-03T08:50:02;5.10;;;2.40;;
54705;SDS011;40603;48.774;8.916;2023-04-03T08:52:51;2.22;;;1.83;;
54705;SDS011;40603;48.774;8.916;2023-04-03T08:55:34;5.72;;;1.98;;
54705;SDS011;40603;48.774;8.916;2023-04-03T09:00:50;6.43;;;2.28;;
54705;SDS011;40603;48.774;8.916;2023-04-03T09:03:31;4.18;;;1.80;;
54705;SDS011;40603;48.774;8.916;2023-04-03T09:11:09;5.32;;;2.10;;
54705;SDS011;40603;48.774;8.916;2023-04-03T09:19:04;7.75;;;2.08;;
54705;SDS011;40603;48.774;8.916;2023-04-03T09:21:48;4.53;;;2.00;;
54705;SDS011;40603;48.774;8.916;2023-04-03T09:24:14;5.97;;;2.40;;
54705;SDS011;40603;48.774;8.916;2023-04-03T09:26:43;5.22;;;2.20;;
54705;SDS011;40603;48.774;8.916;2023-04-03T09:29:22;6.18;;;2.35;;
54705;SDS011;40603;48.774;8.916;2023-04-03T09:31:48;5.47;;;2.15;;
54705;SDS011;40603;48.774;8.916;2023-04-03T09:36:49;5.05;;;2.28;;
54705;SDS011;40603;48.774;8.916;2023-04-03T09:40:00;3.53;;;2.13;;
54705;SDS011;40603;48.774;8.916;2023-04-03T09:42:19;8.20;;;1.95;;
54705;SDS011;40603;48.774;8.916;2023-04-03T09:44:56;5.07;;;2.17;;
54705;SDS011;40603;48.774;8.916;2023-04-03T09:47:32;2.95;;;1.92;;
54705;SDS011;40603;48.774;8.916;2023-04-03T09:52:38;4.50;;;1.92;;
54705;SDS011;40603;48.774;8.916;2023-04-03T09:55:14;2.20;;;1.70;;
54705;SDS011;40603;48.774;8.916;2023-04-03T09:57:45;4.72;;;1.88;;
54705;SDS011;40603;48.774;8.916;2023-04-03T10:02:50;4.45;;;1.90;;
54705;SDS011;40603;48.774;8.916;2023-04-03T10:10:39;5.63;;;2.10;;
54705;SDS011;40603;48.774;8.916;2023-04-03T10:13:12;3.35;;;2.08;;
54705;SDS011;40603;48.774;8.916;2023-04-03T10:15:57;4.43;;;1.70;;
54705;SDS011;40603;48.774;8.916;2023-04-03T10:23:51;3.55;;;1.75;;
54705;SDS011;40603;48.774;8.916;2023-04-03T10:29:36;4.45;;;2.00;;
54705;SDS011;40603;48.774;8.916;2023-04-03T10:32:16;4.72;;;1.60;;
54705;SDS011;40603;48.774;8.916;2023-04-03T10:34:48;4.03;;;1.45;;
54705;SDS011;40603;48.774;8.916;2023-04-03T10:42:50;1.73;;;1.40;;
54705;SDS011;40603;48.774;8.916;2023-04-03T10:48:04;3.63;;;1.48;;
54705;SDS011;40603;48.774;8.916;2023-04-03T10:56:15;2.95;;;1.38;;
54705;SDS011;40603;48.774;8.916;2023-04-03T10:58:46;2.67;;;1.42;;
54705;SDS011;40603;48.774;8.916;2023-04-03T11:01:18;1.92;;;1.33;;
54705;SDS011;40603;48.774;8.916;2023-04-03T11:03:47;4.22;;;1.27;;
54705;SDS011;40603;48.774;8.916;2023-04-03T11:06:15;4.38;;;1.42;;
54705;SDS011;40603;48.774;8.916;2023-04-03T11:08:51;3.75;;;1.27;;
54705;SDS011;40603;48.774;8.916;2023-04-03T11:11:22;3.08;;;1.17;;
54705;SDS011;40603;48.774;8.916;2023-04-03T11:16:42;3.78;;;1.42;;
54705;SDS011;40603;48.774;8.916;2023-04-03T11:22:03;4.57;;;1.65;;
54705;SDS011;40603;48.774;8.916;2023-04-03T11:24:34;4.13;;;1.35;;
54705;SDS011;40603;48.774;8.916;2023-04-03T11:27:01;4.80;;;1.48;;
54705;SDS011;40603;48.774;8.916;2023-04-03T11:29:32;2.30;;;1.25;;
54705;SDS011;40603;48.774;8.916;2023-04-03T11:32:04;4.55;;;2.10;;
54705;SDS011;40603;48.774;8.916;2023-04-03T11:34:40;5.80;;;1.60;;
54705;SDS011;40603;48.774;8.916;2023-04-03T11:40:02;1.83;;;1.50;;
54705;SDS011;40603;48.774;8.916;2023-04-03T11:42:34;3.90;;;1.50;;
54705;SDS011;40603;48.774;8.916;2023-04-03T11:45:17;3.10;;;1.35;;
54705;SDS011;40603;48.774;8.916;2023-04-03T11:47:49;2.88;;;1.63;;
54705;SDS011;40603;48.774;8.916;2023-04-03T12:03:29;2.85;;;1.45;;
54705;SDS011;40603;48.774;8.916;2023-04-03T12:08:25;5.03;;;1.55;;
54705;SDS011;40603;48.774;8.916;2023-04-03T12:16:19;4.40;;;1.80;;
54705;SDS011;40603;48.774;8.916;2023-04-03T12:26:46;1.63;;;1.17;;
54705;SDS011;40603;48.774;8.916;2023-04-03T12:34:38;3.65;;;1.77;;
54705;SDS011;40603;48.774;8.916;2023-04-03T12:45:26;3.60;;;1.40;;
54705;SDS011;40603;48.774;8.916;2023-04-03T12:47:52;4.38;;;1.33;;
54705;SDS011;40603;48.774;8.916;2023-04-03T12:50:23;4.60;;;1.48;;
54705;SDS011;40603;48.774;8.916;2023-04-03T12:52:56;2.67;;;1.25;;
54705;SDS011;40603;48.774;8.916;2023-04-03T12:55:24;2.70;;;1.35;;
54705;SDS011;40603;48.774;8.916;2023-04-03T12:57:50;4.85;;;1.42;;
54705;SDS011;40603;48.774;8.916;2023-04-03T13:00:19;2.65;;;1.38;;
54705;SDS011;40603;48.774;8.916;2023-04-03T13:02:45;1.95;;;1.50;;
54705;SDS011;40603;48.774;8.916;2023-04-03T13:05:13;4.05;;;1.13;;
54705;SDS011;40603;48.774;8.916;2023-04-03T13:07:41;2.22;;;1.23;;
54705;SDS011;40603;48.774;8.916;2023-04-03T13:12:34;2.28;;;1.30;;
54705;SDS011;40603;48.774;8.916;2023-04-03T13:15:01;4.00;;;1.38;;
54705;SDS011;40603;48.774;8.916;2023-04-03T13:17:41;1.90;;;1.15;;
54705;SDS011;40603;48.774;8.916;2023-04-03T13:20:14;3.47;;;1.67;;
54705;SDS011;40603;48.774;8.916;2023-04-03T13:25:34;4.43;;;1.70;;
54705;SDS011;40603;48.774;8.916;2023-04-03T13:28:02;4.97;;;1.75;;
54705;SDS011;40603;48.774;8.916;2023-04-03T13:30:30;2.45;;;1.42;;
54705;SDS011;40603;48.774;8.916;2023-04-03T13:32:58;2.65;;;1.70;;
54705;SDS011;40603;48.774;8.916;2023-04-03T13:37:57;2.42;;;1.48;;
54705;SDS011;40603;48.774;8.916;2023-04-03T13:40:24;3.35;;;1.60;;
54705;SDS011;40603;48.774;8.916;2023-04-03T13:43:03;3.47;;;1.58;;
54705;SDS011;40603;48.774;8.916;2023-04-03T13:45:31;4.03;;;1.20;;
54705;SDS011;40603;48.774;8.916;2023-04-03T13:48:08;2.75;;;1.33;;
54705;SDS011;40603;48.774;8.916;2023-04-03T13:50:57;3.80;;;1.80;;
54705;SDS011;40603;48.774;8.916;2023-04-03T13:53:29;10.57;;;1.77;;
54705;SDS011;40603;48.774;8.916;2023-04-03T13:56:07;2.33;;;1.40;;
54705;SDS011;40603;48.774;8.916;2023-04-03T13:58:52;6.47;;;1.58;;
54705;SDS011;40603;48.774;8.916;2023-04-03T14:01:23;2.65;;;1.50;;
54705;SDS011;40603;48.774;8.916;2023-04-03T14:03:56;4.47;;;1.40;;
54705;SDS011;40603;48.774;8.916;2023-04-03T14:06:24;3.15;;;1.55;;
54705;SDS011;40603;48.774;8.916;2023-04-03T14:08:49;4.82;;;1.75;;
54705;SDS011;40603;48.774;8.916;2023-04-03T14:11:22;3.53;;;1.17;;
54705;SDS011;40603;48.774;8.916;2023-04-03T14:13:50;3.80;;;1.58;;
54705;SDS011;40603;48.774;8.916;2023-04-03T14:16:16;2.28;;;1.27;;
54705;SDS011;40603;48.774;8.916;2023-04-03T14:18:44;2.92;;;1.52;;
54705;SDS011;40603;48.774;8.916;2023-04-03T14:21:11;1.85;;;1.25;;
54705;SDS011;40603;48.774;8.916;2023-04-03T14:23:38;4.18;;;1.70;;
54705;SDS011;40603;48.774;8.916;2023-04-03T14:26:04;3.92;;;1.50;;
54705;SDS011;40603;48.774;8.916;2023-04-03T14:28:33;3.20;;;1.37;;
54705;SDS011;40603;48.774;8.916;2023-04-03T14:30:58;1.55;;;1.35;;
54705;SDS011;40603;48.774;8.916;2023-04-03T14:33:24;3.45;;;1.40;;
54705;SDS011;40603;48.774;8.916;2023-04-03T14:35:52;3.20;;;1.20;;
54705;SDS011;40603;48.774;8.916;2023-04-03T14:38:21;2.58;;;1.20;;
54705;SDS011;40603;48.774;8.916;2023-04-03T14:40:51;3.78;;;1.40;;
54705;SDS011;40603;48.774;8.916;2023-04-03T14:43:17;4.65;;;1.00;;
54705;SDS011;40603;48.774;8.916;2023-04-03T14:45:43;3.25;;;1.65;;
54705;SDS011;40603;48.774;8.916;2023-04-03T14:48:20;3.60;;;1.38;;
54705;SDS011;40603;48.774;8.916;2023-04-03T14:50:47;3.75;;;1.48;;
54705;SDS011;40603;48.774;8.916;2023-04-03T14:53:13;2.33;;;1.50;;
54705;SDS011;40603;48.774;8.916;2023-04-03T14:55:41;2.55;;;1.63;;
54705;SDS011;40603;48.774;8.916;2023-04-03T14:58:17;2.40;;;1.33;;
54705;SDS011;40603;48.774;8.916;2023-04-03T15:00:43;1.63;;;1.25;;
54705;SDS011;40603;48.774;8.916;2023-04-03T15:03:13;2.83;;;1.65;;
54705;SDS011;40603;48.774;8.916;2023-04-03T15:05:40;3.38;;;1.42;;
54705;SDS011;40603;48.774;8.916;2023-04-03T15:08:08;2.70;;;1.58;;
54705;SDS011;40603;48.774;8.916;2023-04-03T15:10:48;3.22;;;1.60;;
54705;SDS011;40603;48.774;8.916;2023-04-03T15:13:14;3.10;;;1.50;;
54705;SDS011;40603;48.774;8.916;2023-04-03T15:15:40;2.53;;;1.30;;
54705;SDS011;40603;48.774;8.916;2023-04-03T15:18:06;5.07;;;1.48;;
54705;SDS011;40603;48.774;8.916;2023-04-03T15:20:31;2.67;;;1.42;;
54705;SDS011;40603;48.774;8.916;2023-04-03T15:22:58;4.22;;;1.48;;
54705;SDS011;40603;48.774;8.916;2023-04-03T15:25:26;3.90;;;1.40;;
54705;SDS011;40603;48.774;8.916;2023-04-03T15:27:52;3.17;;;1.33;;
54705;SDS011;40603;48.774;8.916;2023-04-03T15:30:18;1.95;;;1.20;;
54705;SDS011;40603;48.774;8.916;2023-04-03T15:32:45;3.67;;;1.70;;
54705;SDS011;40603;48.774;8.916;2023-04-03T15:35:10;2.45;;;1.30;;
54705;SDS011;40603;48.774;8.916;2023-04-03T15:37:35;4.93;;;1.20;;
54705;SDS011;40603;48.774;8.916;2023-04-03T15:40:02;2.75;;;1.27;;
54705;SDS011;40603;48.774;8.916;2023-04-03T15:42:28;1.65;;;1.13;;
54705;SDS011;40603;48.774;8.916;2023-04-03T15:44:54;1.92;;;1.38;;
54705;SDS011;40603;48.774;8.916;2023-04-03T15:47:19;2.72;;;1.40;;
54705;SDS011;40603;48.774;8.916;2023-04-03T15:49:44;2.15;;;1.55;;
54705;SDS011;40603;48.774;8.916;2023-04-03T15:52:10;2.30;;;1.30;;
54705;SDS011;40603;48.774;8.916;2023-04-03T15:54:35;4.63;;;1.67;;
54705;SDS011;40603;48.774;8.916;2023-04-03T15:57:00;1.70;;;1.45;;
54705;SDS011;40603;48.774;8.916;2023-04-03T15:59:26;2.17;;;1.45;;
54705;SDS011;40603;48.774;8.916;2023-04-03T16:01:51;3.25;;;1.55;;
54705;SDS011;40603;48.774;8.916;2023-04-03T16:04:17;1.88;;;1.15;;
54705;SDS011;40603;48.774;8.916;2023-04-03T16:06:43;2.83;;;1.30;;
54705;SDS011;40603;48.774;8.916;2023-04-03T16:09:08;3.28;;;1.52;;
54705;SDS011;40603;48.774;8.916;2023-04-03T16:11:33;2.53;;;1.42;;
54705;SDS011;40603;48.774;8.916;2023-04-03T16:14:01;4.10;;;1.50;;
54705;SDS011;40603;48.774;8.916;2023-04-03T16:16:26;3.95;;;1.60;;
54705;SDS011;40603;48.774;8.916;2023-04-03T16:18:52;1.95;;;1.35;;
54705;SDS011;40603;48.774;8.916;2023-04-03T16:21:18;4.30;;;1.58;;
54705;SDS011;40603;48.774;8.916;2023-04-03T16:23:44;4.53;;;1.42;;
54705;SDS011;40603;48.774;8.916;2023-04-03T16:26:09;2.92;;;1.65;;
54705;SDS011;40603;48.774;8.916;2023-04-03T16:28:35;4.43;;;1.60;;
54705;SDS011;40603;48.774;8.916;2023-04-03T16:31:01;4.00;;;1.65;;
54705;SDS011;40603;48.774;8.916;2023-04-03T16:33:26;2.22;;;1.50;;
54705;SDS011;40603;48.774;8.916;2023-04-03T16:35:52;3.67;;;1.25;;
54705;SDS011;40603;48.774;8.916;2023-04-03T16:38:17;3.40;;;1.40;;
54705;SDS011;40603;48.774;8.916;2023-04-03T16:40:43;4.28;;;1.20;;
54705;SDS011;40603;48.774;8.916;2023-04-03T16:43:09;1.73;;;1.20;;
54705;SDS011;40603;48.774;8.916;2023-04-03T16:45:35;2.95;;;1.50;;
54705;SDS011;40603;48.774;8.916;2023-04-03T16:48:01;3.45;;;1.45;;